Queensgate, Washington
Current Conditions -  °F | °C
As of 12:13 PM on Monday 24 Nov 2014 (Local Time) from KPAE Reporting Station
Overcast Overcast  
Wind Chill: 40°   Ceiling: 2700
Heat Index: 47°   Visibility: 10mi
Dew Point: 36°   Wind: 18mph
Humidity: 66%   Direction: 160°SSE
Pressure: 30.25"   Gusts: NA
Location:  47.7527°N, 122.215°W
Report Text: KPAE 242013Z 16016KT 10SM BKN027 BKN034 OVC110 08/02 A3025 RMK AO2 T00830022
Loading
Personal Weather Stations






























Interactive Weather Map New forecast layout! Learn more

10-Day Weather Forecast

Advertisements
Track Severe Weather on mobile